sensor_id;sensor_type;location;lat;lon;timestamp;P1;durP1;ratioP1;P2;durP2;ratioP2
54849;SDS011;47660;51.334;12.396;2024-01-30T00:00:16;3.42;;;1.98;;
54849;SDS011;47660;51.334;12.396;2024-01-30T00:02:42;4.68;;;2.55;;
54849;SDS011;47660;51.334;12.396;2024-01-30T00:05:08;4.90;;;2.17;;
54849;SDS011;47660;51.334;12.396;2024-01-30T00:07:33;3.63;;;1.98;;
54849;SDS011;47660;51.334;12.396;2024-01-30T00:09:58;5.10;;;1.95;;
54849;SDS011;47660;51.334;12.396;2024-01-30T00:12:24;4.25;;;2.20;;
54849;SDS011;47660;51.334;12.396;2024-01-30T00:14:49;4.13;;;2.05;;
54849;SDS011;47660;51.334;12.396;2024-01-30T00:17:14;3.83;;;1.90;;
54849;SDS011;47660;51.334;12.396;2024-01-30T00:19:39;4.38;;;2.03;;
54849;SDS011;47660;51.334;12.396;2024-01-30T00:22:05;4.45;;;1.95;;
54849;SDS011;47660;51.334;12.396;2024-01-30T00:24:30;3.72;;;1.83;;
54849;SDS011;47660;51.334;12.396;2024-01-30T00:26:55;3.35;;;1.95;;
54849;SDS011;47660;51.334;12.396;2024-01-30T00:29:20;5.70;;;1.90;;
54849;SDS011;47660;51.334;12.396;2024-01-30T00:31:47;2.67;;;1.92;;
54849;SDS011;47660;51.334;12.396;2024-01-30T00:34:13;5.13;;;1.75;;
54849;SDS011;47660;51.334;12.396;2024-01-30T00:36:38;2.50;;;1.63;;
54849;SDS011;47660;51.334;12.396;2024-01-30T00:39:03;5.13;;;2.08;;
54849;SDS011;47660;51.334;12.396;2024-01-30T00:41:32;3.67;;;1.90;;
54849;SDS011;47660;51.334;12.396;2024-01-30T00:43:57;8.45;;;2.25;;
54849;SDS011;47660;51.334;12.396;2024-01-30T00:46:22;5.50;;;1.95;;
54849;SDS011;47660;51.334;12.396;2024-01-30T00:48:47;4.55;;;2.38;;
54849;SDS011;47660;51.334;12.396;2024-01-30T00:51:13;3.53;;;1.95;;
54849;SDS011;47660;51.334;12.396;2024-01-30T00:53:38;4.47;;;1.67;;
54849;SDS011;47660;51.334;12.396;2024-01-30T00:56:04;3.88;;;2.00;;
54849;SDS011;47660;51.334;12.396;2024-01-30T00:58:29;2.97;;;1.73;;
54849;SDS011;47660;51.334;12.396;2024-01-30T01:00:54;3.25;;;1.98;;
54849;SDS011;47660;51.334;12.396;2024-01-30T01:03:20;3.60;;;1.90;;
54849;SDS011;47660;51.334;12.396;2024-01-30T01:05:45;3.53;;;1.90;;
54849;SDS011;47660;51.334;12.396;2024-01-30T01:08:10;3.45;;;1.65;;
54849;SDS011;47660;51.334;12.396;2024-01-30T01:10:35;6.82;;;2.10;;
54849;SDS011;47660;51.334;12.396;2024-01-30T01:13:01;4.32;;;2.20;;
54849;SDS011;47660;51.334;12.396;2024-01-30T01:15:26;2.75;;;1.63;;
54849;SDS011;47660;51.334;12.396;2024-01-30T01:17:51;4.47;;;1.88;;
54849;SDS011;47660;51.334;12.396;2024-01-30T01:20:16;4.13;;;2.15;;
54849;SDS011;47660;51.334;12.396;2024-01-30T01:22:42;3.72;;;2.00;;
54849;SDS011;47660;51.334;12.396;2024-01-30T01:25:08;3.05;;;1.80;;
54849;SDS011;47660;51.334;12.396;2024-01-30T01:27:35;4.22;;;2.08;;
54849;SDS011;47660;51.334;12.396;2024-01-30T01:30:05;4.43;;;2.20;;
54849;SDS011;47660;51.334;12.396;2024-01-30T01:32:34;4.20;;;2.25;;
54849;SDS011;47660;51.334;12.396;2024-01-30T01:34:59;3.85;;;2.20;;
54849;SDS011;47660;51.334;12.396;2024-01-30T01:37:24;4.05;;;1.85;;
54849;SDS011;47660;51.334;12.396;2024-01-30T01:39:51;3.25;;;2.03;;
54849;SDS011;47660;51.334;12.396;2024-01-30T01:42:17;8.57;;;2.10;;
54849;SDS011;47660;51.334;12.396;2024-01-30T01:44:42;5.07;;;1.92;;
54849;SDS011;47660;51.334;12.396;2024-01-30T01:47:07;4.32;;;2.35;;
54849;SDS011;47660;51.334;12.396;2024-01-30T01:49:32;7.93;;;2.22;;
54849;SDS011;47660;51.334;12.396;2024-01-30T01:51:57;3.67;;;1.80;;
54849;SDS011;47660;51.334;12.396;2024-01-30T01:54:24;5.60;;;1.90;;
54849;SDS011;47660;51.334;12.396;2024-01-30T01:56:51;3.53;;;2.00;;
54849;SDS011;47660;51.334;12.396;2024-01-30T01:59:18;3.45;;;2.05;;
54849;SDS011;47660;51.334;12.396;2024-01-30T02:01:45;6.65;;;2.30;;
54849;SDS011;47660;51.334;12.396;2024-01-30T02:04:14;2.75;;;1.60;;
54849;SDS011;47660;51.334;12.396;2024-01-30T02:06:39;4.72;;;2.00;;
54849;SDS011;47660;51.334;12.396;2024-01-30T02:09:04;4.25;;;2.22;;
54849;SDS011;47660;51.334;12.396;2024-01-30T02:11:29;6.07;;;2.38;;
54849;SDS011;47660;51.334;12.396;2024-01-30T02:13:55;5.47;;;2.03;;
54849;SDS011;47660;51.334;12.396;2024-01-30T02:16:20;6.32;;;2.42;;
54849;SDS011;47660;51.334;12.396;2024-01-30T02:18:46;3.35;;;2.20;;
54849;SDS011;47660;51.334;12.396;2024-01-30T02:21:14;4.97;;;2.40;;
54849;SDS011;47660;51.334;12.396;2024-01-30T02:23:40;6.03;;;2.70;;
54849;SDS011;47660;51.334;12.396;2024-01-30T02:26:06;6.40;;;2.35;;
54849;SDS011;47660;51.334;12.396;2024-01-30T02:28:31;5.75;;;2.53;;
54849;SDS011;47660;51.334;12.396;2024-01-30T02:30:56;5.53;;;2.13;;
54849;SDS011;47660;51.334;12.396;2024-01-30T02:33:22;4.70;;;2.60;;
54849;SDS011;47660;51.334;12.396;2024-01-30T02:35:47;5.35;;;2.30;;
54849;SDS011;47660;51.334;12.396;2024-01-30T02:38:13;5.88;;;2.83;;
54849;SDS011;47660;51.334;12.396;2024-01-30T02:40:38;6.95;;;2.47;;
54849;SDS011;47660;51.334;12.396;2024-01-30T02:43:03;3.58;;;2.17;;
54849;SDS011;47660;51.334;12.396;2024-01-30T02:45:29;3.05;;;2.13;;
54849;SDS011;47660;51.334;12.396;2024-01-30T02:47:54;5.22;;;2.40;;
54849;SDS011;47660;51.334;12.396;2024-01-30T02:50:19;4.05;;;2.30;;
54849;SDS011;47660;51.334;12.396;2024-01-30T02:52:45;4.95;;;2.17;;
54849;SDS011;47660;51.334;12.396;2024-01-30T02:55:10;3.05;;;1.92;;
54849;SDS011;47660;51.334;12.396;2024-01-30T02:57:36;4.70;;;2.47;;
54849;SDS011;47660;51.334;12.396;2024-01-30T03:00:02;6.38;;;2.40;;
54849;SDS011;47660;51.334;12.396;2024-01-30T03:02:29;6.65;;;2.30;;
54849;SDS011;47660;51.334;12.396;2024-01-30T03:04:54;5.88;;;2.75;;
54849;SDS011;47660;51.334;12.396;2024-01-30T03:07:19;4.40;;;2.20;;
54849;SDS011;47660;51.334;12.396;2024-01-30T03:09:44;5.60;;;2.40;;
54849;SDS011;47660;51.334;12.396;2024-01-30T03:12:10;5.72;;;2.83;;
54849;SDS011;47660;51.334;12.396;2024-01-30T03:14:35;4.50;;;2.28;;
54849;SDS011;47660;51.334;12.396;2024-01-30T03:17:01;4.22;;;2.22;;
54849;SDS011;47660;51.334;12.396;2024-01-30T03:19:26;4.20;;;2.15;;
54849;SDS011;47660;51.334;12.396;2024-01-30T03:21:52;4.53;;;2.55;;
54849;SDS011;47660;51.334;12.396;2024-01-30T03:24:17;3.75;;;2.13;;
54849;SDS011;47660;51.334;12.396;2024-01-30T03:26:43;5.55;;;2.95;;
54849;SDS011;47660;51.334;12.396;2024-01-30T03:29:08;3.58;;;1.77;;
54849;SDS011;47660;51.334;12.396;2024-01-30T03:31:34;4.20;;;2.53;;
54849;SDS011;47660;51.334;12.396;2024-01-30T03:33:59;7.22;;;2.28;;
54849;SDS011;47660;51.334;12.396;2024-01-30T03:36:24;5.30;;;2.25;;
54849;SDS011;47660;51.334;12.396;2024-01-30T03:38:50;5.93;;;2.53;;
54849;SDS011;47660;51.334;12.396;2024-01-30T03:41:15;4.28;;;2.20;;
54849;SDS011;47660;51.334;12.396;2024-01-30T03:43:40;3.92;;;2.40;;
54849;SDS011;47660;51.334;12.396;2024-01-30T03:46:06;5.78;;;2.53;;
54849;SDS011;47660;51.334;12.396;2024-01-30T03:48:31;3.53;;;2.05;;
54849;SDS011;47660;51.334;12.396;2024-01-30T03:50:57;6.50;;;2.72;;
54849;SDS011;47660;51.334;12.396;2024-01-30T03:53:22;5.72;;;2.38;;
54849;SDS011;47660;51.334;12.396;2024-01-30T03:55:47;4.55;;;2.55;;
54849;SDS011;47660;51.334;12.396;2024-01-30T03:58:13;6.85;;;2.47;;
54849;SDS011;47660;51.334;12.396;2024-01-30T04:00:38;8.45;;;2.13;;
54849;SDS011;47660;51.334;12.396;2024-01-30T04:03:03;3.50;;;2.00;;
54849;SDS011;47660;51.334;12.396;2024-01-30T04:05:29;3.80;;;2.30;;
54849;SDS011;47660;51.334;12.396;2024-01-30T04:07:54;3.90;;;2.20;;
54849;SDS011;47660;51.334;12.396;2024-01-30T04:10:19;7.32;;;2.80;;
54849;SDS011;47660;51.334;12.396;2024-01-30T04:12:45;4.05;;;2.05;;
54849;SDS011;47660;51.334;12.396;2024-01-30T04:15:10;4.43;;;2.35;;
54849;SDS011;47660;51.334;12.396;2024-01-30T04:17:36;3.30;;;1.90;;
54849;SDS011;47660;51.334;12.396;2024-01-30T04:20:01;4.60;;;2.25;;
54849;SDS011;47660;51.334;12.396;2024-01-30T04:22:26;3.60;;;2.10;;
54849;SDS011;47660;51.334;12.396;2024-01-30T04:24:51;5.28;;;2.30;;
54849;SDS011;47660;51.334;12.396;2024-01-30T04:27:17;5.43;;;2.25;;
54849;SDS011;47660;51.334;12.396;2024-01-30T04:29:42;4.63;;;2.17;;
54849;SDS011;47660;51.334;12.396;2024-01-30T04:32:07;6.28;;;2.45;;
54849;SDS011;47660;51.334;12.396;2024-01-30T04:34:34;5.30;;;2.50;;
54849;SDS011;47660;51.334;12.396;2024-01-30T04:36:59;4.35;;;2.50;;
54849;SDS011;47660;51.334;12.396;2024-01-30T04:39:24;3.97;;;2.00;;
54849;SDS011;47660;51.334;12.396;2024-01-30T04:41:50;5.03;;;2.38;;
54849;SDS011;47660;51.334;12.396;2024-01-30T04:44:15;8.38;;;2.50;;
54849;SDS011;47660;51.334;12.396;2024-01-30T04:46:40;4.55;;;2.25;;
54849;SDS011;47660;51.334;12.396;2024-01-30T04:49:06;4.82;;;2.42;;
54849;SDS011;47660;51.334;12.396;2024-01-30T04:51:32;4.45;;;2.08;;
54849;SDS011;47660;51.334;12.396;2024-01-30T04:53:58;5.03;;;2.65;;
54849;SDS011;47660;51.334;12.396;2024-01-30T04:56:24;5.80;;;2.40;;
54849;SDS011;47660;51.334;12.396;2024-01-30T04:58:49;4.97;;;2.20;;
54849;SDS011;47660;51.334;12.396;2024-01-30T05:01:17;4.85;;;2.15;;
54849;SDS011;47660;51.334;12.396;2024-01-30T05:03:42;4.40;;;2.38;;
54849;SDS011;47660;51.334;12.396;2024-01-30T05:06:08;7.00;;;2.80;;
54849;SDS011;47660;51.334;12.396;2024-01-30T05:08:34;5.82;;;2.50;;
54849;SDS011;47660;51.334;12.396;2024-01-30T05:11:01;3.17;;;1.90;;
54849;SDS011;47660;51.334;12.396;2024-01-30T05:13:28;5.07;;;2.40;;
54849;SDS011;47660;51.334;12.396;2024-01-30T05:15:55;6.63;;;2.40;;
54849;SDS011;47660;51.334;12.396;2024-01-30T05:18:20;4.55;;;2.15;;
54849;SDS011;47660;51.334;12.396;2024-01-30T05:20:45;5.72;;;2.40;;
54849;SDS011;47660;51.334;12.396;2024-01-30T05:23:10;6.25;;;2.58;;
54849;SDS011;47660;51.334;12.396;2024-01-30T05:25:36;6.20;;;2.33;;
54849;SDS011;47660;51.334;12.396;2024-01-30T05:28:01;5.45;;;2.45;;
54849;SDS011;47660;51.334;12.396;2024-01-30T05:30:26;4.78;;;2.05;;
54849;SDS011;47660;51.334;12.396;2024-01-30T05:32:51;4.55;;;2.10;;
54849;SDS011;47660;51.334;12.396;2024-01-30T05:35:17;4.47;;;2.22;;
54849;SDS011;47660;51.334;12.396;2024-01-30T05:37:43;5.60;;;2.58;;
54849;SDS011;47660;51.334;12.396;2024-01-30T05:40:08;3.83;;;2.60;;
54849;SDS011;47660;51.334;12.396;2024-01-30T05:42:33;6.75;;;2.72;;
54849;SDS011;47660;51.334;12.396;2024-01-30T05:44:59;3.95;;;2.00;;
54849;SDS011;47660;51.334;12.396;2024-01-30T05:47:24;4.57;;;2.15;;
54849;SDS011;47660;51.334;12.396;2024-01-30T05:49:49;4.78;;;2.45;;
54849;SDS011;47660;51.334;12.396;2024-01-30T05:52:15;9.93;;;2.22;;
54849;SDS011;47660;51.334;12.396;2024-01-30T05:54:41;3.97;;;2.20;;
54849;SDS011;47660;51.334;12.396;2024-01-30T05:57:06;8.35;;;2.03;;
54849;SDS011;47660;51.334;12.396;2024-01-30T05:59:32;4.60;;;2.00;;
54849;SDS011;47660;51.334;12.396;2024-01-30T06:01:57;8.10;;;2.28;;
54849;SDS011;47660;51.334;12.396;2024-01-30T06:04:22;4.47;;;2.60;;
54849;SDS011;47660;51.334;12.396;2024-01-30T06:06:48;6.18;;;2.35;;
54849;SDS011;47660;51.334;12.396;2024-01-30T06:09:13;6.55;;;2.83;;
54849;SDS011;47660;51.334;12.396;2024-01-30T06:11:39;7.85;;;2.92;;
54849;SDS011;47660;51.334;12.396;2024-01-30T06:14:04;4.47;;;2.28;;
54849;SDS011;47660;51.334;12.396;2024-01-30T06:16:29;5.45;;;2.53;;
54849;SDS011;47660;51.334;12.396;2024-01-30T06:18:55;6.28;;;2.25;;
54849;SDS011;47660;51.334;12.396;2024-01-30T06:21:21;7.78;;;2.75;;
54849;SDS011;47660;51.334;12.396;2024-01-30T06:23:47;9.15;;;2.47;;
54849;SDS011;47660;51.334;12.396;2024-01-30T06:26:12;7.15;;;2.50;;
54849;SDS011;47660;51.334;12.396;2024-01-30T06:28:37;5.43;;;2.65;;
54849;SDS011;47660;51.334;12.396;2024-01-30T06:31:03;4.85;;;2.65;;
54849;SDS011;47660;51.334;12.396;2024-01-30T06:33:28;4.45;;;2.00;;
54849;SDS011;47660;51.334;12.396;2024-01-30T06:35:54;7.47;;;2.17;;
54849;SDS011;47660;51.334;12.396;2024-01-30T06:38:19;8.30;;;2.35;;
54849;SDS011;47660;51.334;12.396;2024-01-30T06:40:44;5.28;;;3.03;;
54849;SDS011;47660;51.334;12.396;2024-01-30T06:43:09;4.85;;;2.58;;
54849;SDS011;47660;51.334;12.396;2024-01-30T06:45:35;3.80;;;2.45;;
54849;SDS011;47660;51.334;12.396;2024-01-30T06:48:00;5.80;;;2.88;;
54849;SDS011;47660;51.334;12.396;2024-01-30T06:50:26;12.65;;;3.30;;
54849;SDS011;47660;51.334;12.396;2024-01-30T06:52:51;5.15;;;2.70;;
54849;SDS011;47660;51.334;12.396;2024-01-30T06:55:17;8.60;;;3.15;;
54849;SDS011;47660;51.334;12.396;2024-01-30T06:57:43;7.05;;;2.70;;
54849;SDS011;47660;51.334;12.396;2024-01-30T07:00:08;5.35;;;2.63;;
54849;SDS011;47660;51.334;12.396;2024-01-30T07:02:34;7.88;;;3.05;;
54849;SDS011;47660;51.334;12.396;2024-01-30T07:04:59;5.53;;;2.65;;
54849;SDS011;47660;51.334;12.396;2024-01-30T07:07:24;7.80;;;2.90;;
54849;SDS011;47660;51.334;12.396;2024-01-30T07:09:50;6.30;;;2.83;;
54849;SDS011;47660;51.334;12.396;2024-01-30T07:12:20;5.22;;;2.40;;
54849;SDS011;47660;51.334;12.396;2024-01-30T07:14:46;6.35;;;2.50;;
54849;SDS011;47660;51.334;12.396;2024-01-30T07:17:11;9.27;;;2.58;;
54849;SDS011;47660;51.334;12.396;2024-01-30T07:19:36;5.07;;;2.40;;
54849;SDS011;47660;51.334;12.396;2024-01-30T07:22:02;4.55;;;2.25;;
54849;SDS011;47660;51.334;12.396;2024-01-30T07:24:27;6.88;;;2.45;;
54849;SDS011;47660;51.334;12.396;2024-01-30T07:26:52;5.55;;;2.85;;
54849;SDS011;47660;51.334;12.396;2024-01-30T07:29:17;3.30;;;2.35;;
54849;SDS011;47660;51.334;12.396;2024-01-30T07:31:43;3.97;;;2.25;;
54849;SDS011;47660;51.334;12.396;2024-01-30T07:34:08;5.88;;;2.88;;
54849;SDS011;47660;51.334;12.396;2024-01-30T07:36:34;4.45;;;2.08;;
54849;SDS011;47660;51.334;12.396;2024-01-30T07:38:59;6.05;;;2.22;;
54849;SDS011;47660;51.334;12.396;2024-01-30T07:41:24;7.15;;;3.00;;
54849;SDS011;47660;51.334;12.396;2024-01-30T07:43:50;9.02;;;2.95;;
54849;SDS011;47660;51.334;12.396;2024-01-30T07:46:15;5.43;;;2.47;;
54849;SDS011;47660;51.334;12.396;2024-01-30T07:48:40;6.70;;;3.10;;
54849;SDS011;47660;51.334;12.396;2024-01-30T07:51:06;9.68;;;3.25;;
54849;SDS011;47660;51.334;12.396;2024-01-30T07:53:31;8.32;;;2.90;;
54849;SDS011;47660;51.334;12.396;2024-01-30T07:55:56;7.53;;;3.08;;
54849;SDS011;47660;51.334;12.396;2024-01-30T07:58:22;9.02;;;2.92;;
54849;SDS011;47660;51.334;12.396;2024-01-30T08:00:48;5.90;;;2.40;;
54849;SDS011;47660;51.334;12.396;2024-01-30T08:03:14;6.82;;;2.60;;
54849;SDS011;47660;51.334;12.396;2024-01-30T08:05:41;4.45;;;2.70;;
54849;SDS011;47660;51.334;12.396;2024-01-30T08:08:06;3.67;;;2.30;;
54849;SDS011;47660;51.334;12.396;2024-01-30T08:10:32;6.22;;;2.97;;
54849;SDS011;47660;51.334;12.396;2024-01-30T08:12:57;5.03;;;2.78;;
54849;SDS011;47660;51.334;12.396;2024-01-30T08:15:22;5.57;;;2.75;;
54849;SDS011;47660;51.334;12.396;2024-01-30T08:17:47;5.65;;;2.28;;
54849;SDS011;47660;51.334;12.396;2024-01-30T08:20:13;4.30;;;2.63;;
54849;SDS011;47660;51.334;12.396;2024-01-30T08:22:39;6.88;;;3.47;;
54849;SDS011;47660;51.334;12.396;2024-01-30T08:25:05;6.72;;;2.92;;
54849;SDS011;47660;51.334;12.396;2024-01-30T08:27:31;6.68;;;2.70;;
54849;SDS011;47660;51.334;12.396;2024-01-30T08:29:56;7.75;;;3.20;;
54849;SDS011;47660;51.334;12.396;2024-01-30T08:32:21;6.63;;;2.58;;
54849;SDS011;47660;51.334;12.396;2024-01-30T08:34:46;5.95;;;3.25;;
54849;SDS011;47660;51.334;12.396;2024-01-30T08:37:12;5.22;;;2.72;;
54849;SDS011;47660;51.334;12.396;2024-01-30T08:39:38;6.05;;;2.80;;
54849;SDS011;47660;51.334;12.396;2024-01-30T08:42:03;3.85;;;2.80;;
54849;SDS011;47660;51.334;12.396;2024-01-30T08:44:29;8.32;;;2.85;;
54849;SDS011;47660;51.334;12.396;2024-01-30T08:46:54;5.75;;;2.58;;
54849;SDS011;47660;51.334;12.396;2024-01-30T08:49:20;3.63;;;2.33;;
54849;SDS011;47660;51.334;12.396;2024-01-30T08:51:45;8.35;;;3.13;;
54849;SDS011;47660;51.334;12.396;2024-01-30T08:54:10;5.70;;;3.13;;
54849;SDS011;47660;51.334;12.396;2024-01-30T08:56:36;5.40;;;3.13;;
54849;SDS011;47660;51.334;12.396;2024-01-30T08:59:01;8.60;;;2.90;;
54849;SDS011;47660;51.334;12.396;2024-01-30T09:01:26;5.80;;;2.72;;
54849;SDS011;47660;51.334;12.396;2024-01-30T09:03:52;6.97;;;2.53;;
54849;SDS011;47660;51.334;12.396;2024-01-30T09:06:18;4.43;;;2.25;;
54849;SDS011;47660;51.334;12.396;2024-01-30T09:08:43;5.75;;;2.97;;
54849;SDS011;47660;51.334;12.396;2024-01-30T09:11:09;6.95;;;3.38;;
54849;SDS011;47660;51.334;12.396;2024-01-30T09:13:35;7.07;;;2.70;;
54849;SDS011;47660;51.334;12.396;2024-01-30T09:16:01;8.27;;;3.13;;
54849;SDS011;47660;51.334;12.396;2024-01-30T09:18:26;9.63;;;2.97;;
54849;SDS011;47660;51.334;12.396;2024-01-30T09:20:51;9.88;;;3.20;;
54849;SDS011;47660;51.334;12.396;2024-01-30T09:23:17;5.25;;;2.83;;
54849;SDS011;47660;51.334;12.396;2024-01-30T09:25:43;6.50;;;3.05;;
54849;SDS011;47660;51.334;12.396;2024-01-30T09:28:09;5.60;;;2.60;;
54849;SDS011;47660;51.334;12.396;2024-01-30T09:30:34;9.30;;;3.42;;
54849;SDS011;47660;51.334;12.396;2024-01-30T09:32:59;6.70;;;3.05;;
54849;SDS011;47660;51.334;12.396;2024-01-30T09:35:25;5.38;;;2.85;;
54849;SDS011;47660;51.334;12.396;2024-01-30T09:37:50;6.00;;;3.10;;
54849;SDS011;47660;51.334;12.396;2024-01-30T09:40:17;6.75;;;3.33;;
54849;SDS011;47660;51.334;12.396;2024-01-30T09:42:44;7.20;;;3.42;;
54849;SDS011;47660;51.334;12.396;2024-01-30T09:45:11;8.85;;;3.38;;
54849;SDS011;47660;51.334;12.396;2024-01-30T09:47:42;4.90;;;2.95;;
54849;SDS011;47660;51.334;12.396;2024-01-30T09:50:09;7.40;;;3.17;;
54849;SDS011;47660;51.334;12.396;2024-01-30T09:52:35;6.03;;;3.13;;
54849;SDS011;47660;51.334;12.396;2024-01-30T09:55:01;9.60;;;3.40;;
54849;SDS011;47660;51.334;12.396;2024-01-30T09:57:27;7.75;;;3.30;;
54849;SDS011;47660;51.334;12.396;2024-01-30T09:59:53;8.13;;;3.38;;
54849;SDS011;47660;51.334;12.396;2024-01-30T10:02:21;8.25;;;3.60;;
54849;SDS011;47660;51.334;12.396;2024-01-30T10:04:47;6.75;;;3.28;;
54849;SDS011;47660;51.334;12.396;2024-01-30T10:07:14;7.88;;;3.33;;
54849;SDS011;47660;51.334;12.396;2024-01-30T10:09:40;5.05;;;3.30;;
54849;SDS011;47660;51.334;12.396;2024-01-30T10:12:05;4.65;;;2.95;;
54849;SDS011;47660;51.334;12.396;2024-01-30T10:14:31;5.93;;;3.40;;
54849;SDS011;47660;51.334;12.396;2024-01-30T10:16:57;6.72;;;3.17;;
54849;SDS011;47660;51.334;12.396;2024-01-30T10:19:22;6.43;;;3.33;;
54849;SDS011;47660;51.334;12.396;2024-01-30T10:21:47;7.82;;;3.60;;
54849;SDS011;47660;51.334;12.396;2024-01-30T10:24:13;9.85;;;3.53;;
54849;SDS011;47660;51.334;12.396;2024-01-30T10:26:39;7.50;;;3.35;;
54849;SDS011;47660;51.334;12.396;2024-01-30T10:29:04;7.80;;;3.88;;
54849;SDS011;47660;51.334;12.396;2024-01-30T10:31:30;5.43;;;3.38;;
54849;SDS011;47660;51.334;12.396;2024-01-30T10:33:55;8.05;;;3.55;;
54849;SDS011;47660;51.334;12.396;2024-01-30T10:36:21;7.22;;;3.67;;
54849;SDS011;47660;51.334;12.396;2024-01-30T10:38:55;7.15;;;3.50;;
54849;SDS011;47660;51.334;12.396;2024-01-30T10:41:25;6.03;;;3.28;;
54849;SDS011;47660;51.334;12.396;2024-01-30T10:44:08;5.93;;;3.45;;
54849;SDS011;47660;51.334;12.396;2024-01-30T10:46:34;7.07;;;3.25;;
54849;SDS011;47660;51.334;12.396;2024-01-30T10:49:02;7.03;;;3.53;;
54849;SDS011;47660;51.334;12.396;2024-01-30T10:51:29;6.22;;;3.53;;
54849;SDS011;47660;51.334;12.396;2024-01-30T10:53:56;9.75;;;3.58;;
54849;SDS011;47660;51.334;12.396;2024-01-30T10:56:22;6.38;;;4.05;;
54849;SDS011;47660;51.334;12.396;2024-01-30T10:58:49;9.88;;;3.85;;
54849;SDS011;47660;51.334;12.396;2024-01-30T11:01:17;6.53;;;3.60;;
54849;SDS011;47660;51.334;12.396;2024-01-30T11:03:48;6.78;;;3.42;;
54849;SDS011;47660;51.334;12.396;2024-01-30T11:06:15;6.05;;;3.42;;
54849;SDS011;47660;51.334;12.396;2024-01-30T11:08:43;5.80;;;3.60;;
54849;SDS011;47660;51.334;12.396;2024-01-30T11:11:10;8.50;;;3.70;;
54849;SDS011;47660;51.334;12.396;2024-01-30T11:13:35;7.03;;;3.80;;
54849;SDS011;47660;51.334;12.396;2024-01-30T11:16:04;6.72;;;3.47;;
54849;SDS011;47660;51.334;12.396;2024-01-30T11:18:30;9.00;;;4.25;;
54849;SDS011;47660;51.334;12.396;2024-01-30T11:20:57;6.40;;;4.00;;
54849;SDS011;47660;51.334;12.396;2024-01-30T11:23:23;7.45;;;3.47;;
54849;SDS011;47660;51.334;12.396;2024-01-30T11:25:52;5.18;;;3.28;;
54849;SDS011;47660;51.334;12.396;2024-01-30T11:28:17;8.27;;;4.20;;
54849;SDS011;47660;51.334;12.396;2024-01-30T11:30:43;8.68;;;4.13;;
54849;SDS011;47660;51.334;12.396;2024-01-30T11:33:12;7.38;;;3.70;;
54849;SDS011;47660;51.334;12.396;2024-01-30T11:38:09;12.18;;;3.92;;
54849;SDS011;47660;51.334;12.396;2024-01-30T11:40:36;5.70;;;3.83;;
54849;SDS011;47660;51.334;12.396;2024-01-30T11:43:03;6.32;;;3.60;;
54849;SDS011;47660;51.334;12.396;2024-01-30T11:45:30;5.60;;;3.35;;
54849;SDS011;47660;51.334;12.396;2024-01-30T11:47:56;11.93;;;3.90;;
54849;SDS011;47660;51.334;12.396;2024-01-30T11:50:22;8.32;;;3.70;;
54849;SDS011;47660;51.334;12.396;2024-01-30T11:52:48;8.95;;;4.15;;
54849;SDS011;47660;51.334;12.396;2024-01-30T11:55:14;7.90;;;3.78;;
54849;SDS011;47660;51.334;12.396;2024-01-30T11:57:40;9.13;;;4.00;;
54849;SDS011;47660;51.334;12.396;2024-01-30T12:00:05;6.55;;;3.97;;
54849;SDS011;47660;51.334;12.396;2024-01-30T12:02:35;5.78;;;4.00;;
54849;SDS011;47660;51.334;12.396;2024-01-30T12:05:04;7.22;;;3.60;;
54849;SDS011;47660;51.334;12.396;2024-01-30T12:07:30;5.97;;;3.95;;
54849;SDS011;47660;51.334;12.396;2024-01-30T12:09:56;7.32;;;3.92;;
54849;SDS011;47660;51.334;12.396;2024-01-30T12:12:24;6.60;;;3.42;;
54849;SDS011;47660;51.334;12.396;2024-01-30T12:14:50;6.43;;;3.80;;
54849;SDS011;47660;51.334;12.396;2024-01-30T12:17:29;6.85;;;3.60;;
54849;SDS011;47660;51.334;12.396;2024-01-30T12:20:11;7.05;;;4.00;;
54849;SDS011;47660;51.334;12.396;2024-01-30T12:22:42;6.50;;;3.83;;
54849;SDS011;47660;51.334;12.396;2024-01-30T12:25:11;6.55;;;4.40;;
54849;SDS011;47660;51.334;12.396;2024-01-30T12:27:38;7.47;;;3.88;;
54849;SDS011;47660;51.334;12.396;2024-01-30T12:30:08;8.40;;;3.92;;
54849;SDS011;47660;51.334;12.396;2024-01-30T12:32:39;8.75;;;3.67;;
54849;SDS011;47660;51.334;12.396;2024-01-30T12:35:12;8.52;;;3.60;;
54849;SDS011;47660;51.334;12.396;2024-01-30T12:37:39;8.43;;;4.07;;
54849;SDS011;47660;51.334;12.396;2024-01-30T12:40:05;8.40;;;3.95;;
54849;SDS011;47660;51.334;12.396;2024-01-30T12:42:32;6.13;;;3.53;;
54849;SDS011;47660;51.334;12.396;2024-01-30T12:44:58;5.18;;;3.75;;
54849;SDS011;47660;51.334;12.396;2024-01-30T12:47:24;7.05;;;3.45;;
54849;SDS011;47660;51.334;12.396;2024-01-30T12:49:49;6.93;;;3.40;;
54849;SDS011;47660;51.334;12.396;2024-01-30T12:52:18;6.78;;;3.60;;
54849;SDS011;47660;51.334;12.396;2024-01-30T12:54:44;4.53;;;3.28;;
54849;SDS011;47660;51.334;12.396;2024-01-30T12:57:10;5.75;;;3.22;;
54849;SDS011;47660;51.334;12.396;2024-01-30T12:59:35;6.30;;;3.50;;
54849;SDS011;47660;51.334;12.396;2024-01-30T13:02:00;5.57;;;3.05;;
54849;SDS011;47660;51.334;12.396;2024-01-30T13:04:27;7.28;;;3.53;;
54849;SDS011;47660;51.334;12.396;2024-01-30T13:06:52;4.00;;;2.88;;
54849;SDS011;47660;51.334;12.396;2024-01-30T13:09:18;7.78;;;3.45;;
54849;SDS011;47660;51.334;12.396;2024-01-30T13:11:43;8.03;;;3.77;;
54849;SDS011;47660;51.334;12.396;2024-01-30T13:14:08;9.00;;;3.70;;
54849;SDS011;47660;51.334;12.396;2024-01-30T13:16:33;5.47;;;3.60;;
54849;SDS011;47660;51.334;12.396;2024-01-30T13:18:59;6.40;;;3.92;;
54849;SDS011;47660;51.334;12.396;2024-01-30T13:21:25;7.20;;;3.70;;
54849;SDS011;47660;51.334;12.396;2024-01-30T13:23:51;6.00;;;3.50;;
54849;SDS011;47660;51.334;12.396;2024-01-30T13:26:18;8.23;;;3.90;;
54849;SDS011;47660;51.334;12.396;2024-01-30T13:28:44;5.88;;;4.05;;
54849;SDS011;47660;51.334;12.396;2024-01-30T13:31:09;7.80;;;3.92;;
54849;SDS011;47660;51.334;12.396;2024-01-30T13:33:35;6.90;;;4.18;;
54849;SDS011;47660;51.334;12.396;2024-01-30T13:36:00;6.50;;;3.70;;
54849;SDS011;47660;51.334;12.396;2024-01-30T13:38:25;6.20;;;3.65;;
54849;SDS011;47660;51.334;12.396;2024-01-30T13:40:51;9.30;;;4.10;;
54849;SDS011;47660;51.334;12.396;2024-01-30T13:43:16;5.95;;;3.80;;
54849;SDS011;47660;51.334;12.396;2024-01-30T13:45:42;6.63;;;3.78;;
54849;SDS011;47660;51.334;12.396;2024-01-30T13:48:08;6.68;;;3.65;;
54849;SDS011;47660;51.334;12.396;2024-01-30T13:50:33;6.57;;;3.95;;
54849;SDS011;47660;51.334;12.396;2024-01-30T13:52:58;7.80;;;3.85;;
54849;SDS011;47660;51.334;12.396;2024-01-30T13:55:24;6.18;;;3.88;;
54849;SDS011;47660;51.334;12.396;2024-01-30T13:57:50;6.55;;;3.85;;
54849;SDS011;47660;51.334;12.396;2024-01-30T14:00:15;6.82;;;3.90;;
54849;SDS011;47660;51.334;12.396;2024-01-30T14:02:41;7.90;;;4.00;;
54849;SDS011;47660;51.334;12.396;2024-01-30T14:05:06;6.68;;;4.00;;
54849;SDS011;47660;51.334;12.396;2024-01-30T14:07:32;9.23;;;3.83;;
54849;SDS011;47660;51.334;12.396;2024-01-30T14:09:57;6.53;;;3.75;;
54849;SDS011;47660;51.334;12.396;2024-01-30T14:12:22;6.95;;;3.72;;
54849;SDS011;47660;51.334;12.396;2024-01-30T14:14:48;7.70;;;3.88;;
54849;SDS011;47660;51.334;12.396;2024-01-30T14:17:13;7.65;;;3.63;;
54849;SDS011;47660;51.334;12.396;2024-01-30T14:19:39;6.85;;;3.67;;
54849;SDS011;47660;51.334;12.396;2024-01-30T14:22:04;7.63;;;3.60;;
54849;SDS011;47660;51.334;12.396;2024-01-30T14:24:29;6.35;;;3.85;;
54849;SDS011;47660;51.334;12.396;2024-01-30T14:26:55;6.72;;;3.63;;